createdAt,value
2018-01-16T00:00:36.531Z,22.20
2018-01-16T00:03:04.085Z,17.40
2018-01-16T00:05:31.596Z,20.53
2018-01-16T00:07:59.143Z,20.50
2018-01-16T00:10:26.643Z,22.63
2018-01-16T00:12:54.202Z,20.50
2018-01-16T00:15:21.746Z,20.33
2018-01-16T00:17:49.256Z,20.53
2018-01-16T00:20:16.781Z,22.07
2018-01-16T00:22:44.356Z,21.17
2018-01-16T00:25:11.865Z,22.40
2018-01-16T00:27:39.517Z,18.37
2018-01-16T00:30:07.014Z,18.77
2018-01-16T00:32:34.814Z,16.93
2018-01-16T00:35:02.408Z,21.13
2018-01-16T00:37:30.861Z,21.30
2018-01-16T00:39:58.373Z,20.47
2018-01-16T00:42:26.677Z,21.20
2018-01-16T00:44:54.183Z,19.57
2018-01-16T00:47:22.318Z,21.50
2018-01-16T00:49:49.832Z,19.77
2018-01-16T00:52:17.377Z,19.60
2018-01-16T00:54:44.956Z,17.63
2018-01-16T00:57:12.525Z,19.20
2018-01-16T00:59:40.286Z,17.70
2018-01-16T01:02:07.802Z,20.80
2018-01-16T01:04:36.342Z,20.90
2018-01-16T01:07:04.616Z,20.50
2018-01-16T01:09:32.870Z,20.07
2018-01-16T01:12:00.410Z,22.77
2018-01-16T01:14:27.959Z,18.80
2018-01-16T01:16:56.243Z,26.87
2018-01-16T01:19:24.594Z,21.92
2018-01-16T01:21:52.108Z,21.70
2018-01-16T01:24:19.752Z,22.05
2018-01-16T01:26:47.290Z,20.80
2018-01-16T01:29:14.804Z,20.40
2018-01-16T01:31:43.101Z,24.08
2018-01-16T01:34:11.364Z,20.30
2018-01-16T01:36:38.875Z,23.23
2018-01-16T01:39:06.430Z,21.80
2018-01-16T01:41:34.740Z,19.10
2018-01-16T01:44:02.240Z,19.17
2018-01-16T01:46:29.787Z,23.50
2018-01-16T01:49:09.314Z,20.33
2018-01-16T01:51:37.689Z,19.00
2018-01-16T01:54:05.981Z,23.10
2018-01-16T01:56:33.576Z,18.27
2018-01-16T01:59:01.850Z,20.20
2018-01-16T02:01:30.227Z,28.53
2018-01-16T02:03:57.732Z,18.23
2018-01-16T02:06:25.306Z,19.00
2018-01-16T02:08:52.868Z,15.50
2018-01-16T02:11:21.147Z,20.00
2018-01-16T02:13:49.439Z,19.73
2018-01-16T02:16:16.996Z,20.20
2018-01-16T02:18:44.533Z,19.70
2018-01-16T02:21:12.080Z,19.43
2018-01-16T02:23:39.663Z,17.85
2018-01-16T02:26:07.287Z,19.43
2018-01-16T02:28:34.795Z,20.10
2018-01-16T02:31:02.342Z,20.48
2018-01-16T02:33:30.601Z,18.20
2018-01-16T02:35:58.918Z,16.77
2018-01-16T02:38:26.434Z,18.42
2018-01-16T02:40:54.071Z,17.63
2018-01-16T02:43:21.608Z,18.10
2018-01-16T02:45:50.721Z,16.43
2018-01-16T02:48:18.311Z,16.60
2018-01-16T02:50:45.818Z,14.63
2018-01-16T02:53:13.333Z,14.18
2018-01-16T02:55:40.841Z,13.70
2018-01-16T02:58:08.468Z,16.23
2018-01-16T03:00:36.088Z,16.40
2018-01-16T03:03:03.614Z,13.83
2018-01-16T03:05:31.855Z,13.60
2018-01-16T03:07:59.365Z,14.60
2018-01-16T03:10:26.961Z,14.13
2018-01-16T03:12:55.354Z,13.27
2018-01-16T03:15:22.927Z,12.50
2018-01-16T03:17:51.205Z,16.30
2018-01-16T03:20:18.704Z,14.67
2018-01-16T03:25:21.015Z,13.20
2018-01-16T03:27:48.584Z,12.00
2018-01-16T03:30:16.068Z,12.85
2018-01-16T03:32:43.584Z,13.80
2018-01-16T03:35:11.070Z,14.47
2018-01-16T03:37:38.625Z,12.20
2018-01-16T03:40:06.103Z,12.57
2018-01-16T03:42:33.690Z,11.70
2018-01-16T03:45:01.200Z,13.50
2018-01-16T03:47:28.710Z,12.47
2018-01-16T03:49:56.197Z,12.00
2018-01-16T03:52:24.553Z,13.82
2018-01-16T03:54:52.120Z,10.57
2018-01-16T03:57:19.659Z,13.73
2018-01-16T03:59:47.196Z,12.13
2018-01-16T04:02:15.457Z,11.23
2018-01-16T04:04:42.950Z,8.50
2018-01-16T04:07:19.233Z,9.65
2018-01-16T04:09:47.505Z,11.12
2018-01-16T04:12:15.013Z,11.73
2018-01-16T04:14:42.513Z,11.48
2018-01-16T04:17:10.055Z,10.07
2018-01-16T04:19:37.619Z,13.10
2018-01-16T04:22:05.897Z,12.20
2018-01-16T04:24:34.150Z,10.00
2018-01-16T04:27:01.684Z,11.20
2018-01-16T04:29:29.180Z,10.57
2018-01-16T04:31:56.688Z,12.73
2018-01-16T04:34:24.946Z,11.30
2018-01-16T04:36:52.547Z,11.70
2018-01-16T04:39:20.045Z,13.80
2018-01-16T04:41:47.545Z,11.73
2018-01-16T04:44:15.061Z,12.63
2018-01-16T04:46:43.332Z,11.90
2018-01-16T04:49:10.936Z,11.98
2018-01-16T04:51:39.220Z,9.83
2018-01-16T04:54:07.609Z,13.10
2018-01-16T04:56:35.207Z,11.30
2018-01-16T04:59:02.700Z,9.70
2018-01-16T05:01:30.273Z,11.90
2018-01-16T05:03:57.760Z,10.33
2018-01-16T05:06:25.285Z,10.77
2018-01-16T05:08:52.892Z,9.03
2018-01-16T05:11:20.525Z,12.13
2018-01-16T05:13:48.068Z,9.17
2018-01-16T05:16:16.425Z,10.37
2018-01-16T05:18:43.905Z,11.00
2018-01-16T05:21:11.516Z,10.10
2018-01-16T05:23:39.844Z,12.70
2018-01-16T05:26:07.374Z,10.07
2018-01-16T05:28:35.776Z,11.53
2018-01-16T05:31:03.322Z,11.23
2018-01-16T05:33:30.897Z,10.00
2018-01-16T05:35:59.209Z,10.70
2018-01-16T05:38:26.767Z,9.00
2018-01-16T05:40:54.318Z,11.17
2018-01-16T05:43:21.912Z,11.17
2018-01-16T05:45:50.184Z,9.17
2018-01-16T05:48:17.679Z,10.43
2018-01-16T05:50:46.415Z,8.97
2018-01-16T05:53:14.057Z,9.30
2018-01-16T05:55:41.618Z,9.97
2018-01-16T05:58:09.916Z,9.37
2018-01-16T06:00:37.422Z,8.53
2018-01-16T06:03:04.920Z,10.07
2018-01-16T06:05:32.519Z,10.93
2018-01-16T06:08:00.940Z,8.77
2018-01-16T06:10:28.424Z,10.47
2018-01-16T06:12:55.982Z,9.77
2018-01-16T06:15:24.013Z,9.70
2018-01-16T06:17:51.609Z,8.10
2018-01-16T06:20:19.172Z,10.30
2018-01-16T06:22:47.446Z,12.33
2018-01-16T06:25:14.933Z,8.43
2018-01-16T06:27:43.213Z,10.73
2018-01-16T06:30:11.498Z,11.03
2018-01-16T06:32:39.025Z,11.47
2018-01-16T06:35:06.546Z,10.90
2018-01-16T06:37:34.988Z,12.47
2018-01-16T06:40:02.771Z,8.93
2018-01-16T06:42:30.281Z,10.40
2018-01-16T06:44:58.569Z,8.63
2018-01-16T06:47:26.880Z,8.97
2018-01-16T06:49:54.472Z,8.60
2018-01-16T06:52:21.990Z,8.50
2018-01-16T06:54:49.708Z,11.33
2018-01-16T06:57:17.257Z,11.13
2018-01-16T06:59:45.536Z,11.20
2018-01-16T07:02:13.837Z,9.33
2018-01-16T07:04:42.093Z,9.83
2018-01-16T07:07:11.107Z,9.77
2018-01-16T07:09:38.638Z,8.37
2018-01-16T07:12:06.165Z,11.20
2018-01-16T07:14:34.480Z,11.37
2018-01-16T07:17:02.127Z,12.23
2018-01-16T07:19:30.368Z,11.30
2018-01-16T07:21:57.893Z,14.83
2018-01-16T07:24:26.161Z,9.57
2018-01-16T07:26:53.679Z,11.83
2018-01-16T07:29:21.197Z,8.30
2018-01-16T07:31:48.776Z,11.37
2018-01-16T07:34:17.085Z,8.70
2018-01-16T07:36:45.399Z,14.03
2018-01-16T07:39:12.945Z,10.37
2018-01-16T07:41:41.253Z,7.43
2018-01-16T07:44:08.818Z,8.70
2018-01-16T07:46:36.336Z,6.97
2018-01-16T07:49:04.000Z,8.80
2018-01-16T07:51:31.521Z,6.20
2018-01-16T07:53:59.020Z,6.40
2018-01-16T07:56:26.538Z,10.27
2018-01-16T07:58:54.796Z,7.70
2018-01-16T08:01:22.341Z,11.53
2018-01-16T08:03:49.880Z,7.60
2018-01-16T08:06:18.128Z,6.00
2018-01-16T08:08:45.644Z,7.57
2018-01-16T08:11:13.758Z,7.80
2018-01-16T08:13:41.298Z,6.50
2018-01-16T08:16:08.894Z,8.00
2018-01-16T08:18:36.383Z,6.70
2018-01-16T08:21:04.100Z,8.50
2018-01-16T08:23:32.396Z,5.90
2018-01-16T08:26:00.696Z,5.60
2018-01-16T08:28:28.322Z,6.07
2018-01-16T08:30:55.825Z,6.87
2018-01-16T08:33:24.077Z,6.67
2018-01-16T08:35:51.693Z,5.90
2018-01-16T08:38:20.038Z,5.47
2018-01-16T08:40:47.723Z,7.10
2018-01-16T08:43:15.261Z,8.20
2018-01-16T08:45:42.757Z,6.27
2018-01-16T08:48:10.309Z,5.60
2018-01-16T08:50:37.832Z,5.37
2018-01-16T08:53:06.723Z,4.70
2018-01-16T08:55:35.009Z,5.80
2018-01-16T08:58:02.563Z,6.07
2018-01-16T09:00:30.062Z,6.03
2018-01-16T09:02:58.337Z,4.73
2018-01-16T09:05:25.938Z,5.83
2018-01-16T09:07:53.537Z,5.00
2018-01-16T09:10:21.059Z,5.20
2018-01-16T09:12:48.626Z,6.33
2018-01-16T09:15:16.298Z,4.07
2018-01-16T09:17:45.277Z,5.43
2018-01-16T09:20:12.854Z,5.60
2018-01-16T09:22:40.397Z,4.47
2018-01-16T09:25:07.952Z,6.23
2018-01-16T09:27:35.539Z,5.93
2018-01-16T09:30:03.082Z,4.93
2018-01-16T09:32:31.354Z,3.93
2018-01-16T09:34:58.861Z,5.43
2018-01-16T09:37:27.122Z,6.63
2018-01-16T09:39:56.661Z,6.40
2018-01-16T09:42:24.186Z,4.17
2018-01-16T09:44:51.665Z,3.67
2018-01-16T09:47:19.293Z,4.13
2018-01-16T09:49:46.805Z,3.10
2018-01-16T09:52:14.433Z,4.43
2018-01-16T09:54:41.986Z,3.33
2018-01-16T09:57:10.289Z,3.80
2018-01-16T09:59:37.880Z,12.37
2018-01-16T10:02:05.423Z,2.90
2018-01-16T10:04:32.909Z,3.73
2018-01-16T10:07:00.445Z,2.53
2018-01-16T10:09:28.710Z,2.30
2018-01-16T10:11:56.274Z,2.47
2018-01-16T10:14:23.776Z,6.30
2018-01-16T10:16:52.253Z,3.77
2018-01-16T10:19:19.869Z,2.33
2018-01-16T10:21:47.394Z,2.27
2018-01-16T10:24:14.895Z,1.60
2018-01-16T10:26:43.240Z,1.90
2018-01-16T10:29:10.725Z,3.00
2018-01-16T10:31:38.265Z,3.07
2018-01-16T10:34:05.789Z,3.00
2018-01-16T10:36:34.073Z,1.83
2018-01-16T10:39:02.380Z,3.33
2018-01-16T10:41:30.659Z,3.27
2018-01-16T10:43:58.958Z,2.13
2018-01-16T10:46:27.945Z,3.17
2018-01-16T10:48:56.264Z,2.50
2018-01-16T10:51:23.749Z,3.07
2018-01-16T10:53:51.309Z,2.17
2018-01-16T10:56:18.806Z,2.60
2018-01-16T10:58:46.464Z,2.70
2018-01-16T11:01:13.941Z,3.17
2018-01-16T11:03:41.436Z,4.50
2018-01-16T11:06:08.953Z,5.50
2018-01-16T11:08:36.545Z,2.20
2018-01-16T11:11:04.211Z,5.97
2018-01-16T11:13:31.753Z,7.60
2018-01-16T11:15:59.322Z,2.63
2018-01-16T11:18:27.001Z,2.37
2018-01-16T11:20:55.297Z,2.90
2018-01-16T11:23:23.580Z,2.23
2018-01-16T11:25:51.848Z,2.10
2018-01-16T11:28:19.761Z,3.30
2018-01-16T11:30:47.424Z,3.63
2018-01-16T11:33:15.717Z,3.00
2018-01-16T11:35:43.981Z,2.63
2018-01-16T11:38:11.492Z,2.20
2018-01-16T11:40:39.069Z,1.07
2018-01-16T11:43:06.595Z,1.67
2018-01-16T11:45:34.145Z,1.07
2018-01-16T11:48:01.770Z,1.50
2018-01-16T11:50:29.276Z,0.90
2018-01-16T11:52:56.825Z,1.37
2018-01-16T11:55:24.325Z,1.80
2018-01-16T11:57:51.963Z,0.70
2018-01-16T12:00:19.512Z,1.07
2018-01-16T12:02:47.777Z,1.87
2018-01-16T12:05:15.290Z,1.30
2018-01-16T12:07:42.773Z,1.53
2018-01-16T12:10:10.341Z,1.20
2018-01-16T12:12:37.845Z,0.90
2018-01-16T12:15:05.385Z,1.43
2018-01-16T12:17:32.926Z,1.53
2018-01-16T12:20:01.285Z,1.10
2018-01-16T12:22:29.544Z,1.10
2018-01-16T12:24:57.101Z,0.90
2018-01-16T12:27:24.656Z,1.17
2018-01-16T12:29:52.173Z,1.13
2018-01-16T12:32:19.672Z,0.83
2018-01-16T12:34:47.175Z,1.47
2018-01-16T12:37:15.448Z,0.80
2018-01-16T12:39:43.727Z,2.47
2018-01-16T12:42:11.320Z,2.00
2018-01-16T12:44:39.646Z,0.83
2018-01-16T12:47:07.276Z,1.23
2018-01-16T12:49:35.780Z,1.53
2018-01-16T12:52:03.284Z,1.30
2018-01-16T12:54:30.854Z,1.17
2018-01-16T12:56:58.347Z,2.20
2018-01-16T12:59:25.958Z,2.17
2018-01-16T13:01:54.838Z,1.10
2018-01-16T13:04:22.483Z,2.20
2018-01-16T13:06:49.974Z,1.40
2018-01-16T13:09:17.479Z,1.20
2018-01-16T13:11:44.981Z,1.10
2018-01-16T13:14:12.482Z,2.17
2018-01-16T13:16:39.965Z,1.63
2018-01-16T13:19:08.310Z,2.77
2018-01-16T13:21:35.972Z,6.53
2018-01-16T13:24:03.531Z,1.20
2018-01-16T13:26:31.115Z,3.10
2018-01-16T13:28:58.637Z,2.33
2018-01-16T13:31:26.296Z,1.20
2018-01-16T13:33:53.808Z,1.00
2018-01-16T13:36:21.370Z,1.20
2018-01-16T13:38:49.674Z,1.20
2018-01-16T13:41:17.162Z,1.80
2018-01-16T13:43:44.719Z,1.10
2018-01-16T13:46:12.213Z,0.80
2018-01-16T13:48:39.739Z,5.03
2018-01-16T13:51:08.119Z,0.83
2018-01-16T13:53:36.468Z,1.63
2018-01-16T13:56:03.960Z,2.10
2018-01-16T13:58:31.536Z,5.23
2018-01-16T14:00:59.061Z,1.80
2018-01-16T14:03:26.577Z,4.60
2018-01-16T14:05:54.095Z,3.30
2018-01-16T14:08:21.608Z,1.07
2018-01-16T14:10:49.110Z,1.50
2018-01-16T14:13:17.412Z,2.37
2018-01-16T14:15:45.594Z,1.40
2018-01-16T14:18:13.870Z,1.03
2018-01-16T14:20:42.124Z,5.60
2018-01-16T14:23:09.624Z,1.40
2018-01-16T14:25:37.921Z,2.77
2018-01-16T14:28:05.579Z,1.20
2018-01-16T14:30:33.186Z,1.40
2018-01-16T14:33:00.716Z,2.10
2018-01-16T14:35:28.220Z,1.43
2018-01-16T14:37:56.524Z,2.60
2018-01-16T14:40:24.012Z,1.40
2018-01-16T14:42:51.517Z,1.70
2018-01-16T14:45:19.005Z,0.90
2018-01-16T14:47:47.298Z,1.20
2018-01-16T14:50:15.616Z,2.80
2018-01-16T14:52:43.117Z,4.27
2018-01-16T14:55:10.667Z,1.70
2018-01-16T14:57:38.323Z,2.00
2018-01-16T15:00:05.827Z,8.23
2018-01-16T15:02:33.481Z,2.20
2018-01-16T15:05:01.040Z,1.63
2018-01-16T15:07:28.556Z,1.87
2018-01-16T15:09:56.889Z,1.63
2018-01-16T15:12:25.173Z,1.90
2018-01-16T15:14:52.754Z,2.10
2018-01-16T15:17:20.278Z,1.50
2018-01-16T15:19:47.786Z,2.40
2018-01-16T15:22:16.067Z,1.07
2018-01-16T15:24:44.350Z,2.90
2018-01-16T15:27:12.843Z,2.30
2018-01-16T15:29:41.117Z,1.67
2018-01-16T15:32:08.620Z,1.70
2018-01-16T15:34:36.196Z,2.33
2018-01-16T15:37:03.772Z,1.20
2018-01-16T15:39:32.105Z,1.13
2018-01-16T15:41:59.755Z,3.40
2018-01-16T15:44:27.307Z,3.67
2018-01-16T15:46:54.926Z,2.40
2018-01-16T15:49:22.455Z,2.33
2018-01-16T15:51:49.982Z,3.00
2018-01-16T15:54:18.323Z,1.67
2018-01-16T15:56:45.872Z,2.43
2018-01-16T15:59:14.171Z,2.80
2018-01-16T16:01:41.672Z,1.20
2018-01-16T16:04:09.195Z,3.37
2018-01-16T16:06:37.475Z,3.90
2018-01-16T16:09:05.763Z,2.07
2018-01-16T16:11:34.033Z,1.93
2018-01-16T16:14:01.650Z,1.50
2018-01-16T16:16:29.227Z,1.50
2018-01-16T16:18:56.717Z,1.50
2018-01-16T16:21:24.229Z,1.97
2018-01-16T16:23:51.839Z,1.60
2018-01-16T16:26:19.443Z,1.90
2018-01-16T16:28:46.928Z,1.83
2018-01-16T16:31:14.521Z,2.40
2018-01-16T16:33:42.824Z,2.40
2018-01-16T16:36:11.213Z,2.63
2018-01-16T16:38:39.472Z,2.57
2018-01-16T16:41:07.027Z,2.57
2018-01-16T16:43:34.561Z,5.47
2018-01-16T16:46:02.221Z,2.17
2018-01-16T16:48:30.479Z,3.57
2018-01-16T16:50:57.991Z,2.60
2018-01-16T16:53:25.553Z,2.43
2018-01-16T16:55:53.890Z,2.20
2018-01-16T16:58:21.407Z,2.63
2018-01-16T17:00:49.677Z,2.50
2018-01-16T17:03:17.197Z,1.93
2018-01-16T17:05:44.740Z,2.00
2018-01-16T17:08:13.025Z,2.37
2018-01-16T17:10:41.297Z,2.00
2018-01-16T17:13:08.855Z,1.80
2018-01-16T17:15:36.489Z,2.03
2018-01-16T17:18:04.048Z,1.87
2018-01-16T17:20:31.623Z,2.53
2018-01-16T17:22:59.247Z,2.70
2018-01-16T17:25:26.900Z,2.20
2018-01-16T17:27:54.422Z,3.37
2018-01-16T17:30:22.775Z,4.20
2018-01-16T17:32:50.406Z,6.13
2018-01-16T17:35:17.973Z,3.50
2018-01-16T17:37:45.515Z,3.40
2018-01-16T17:40:13.101Z,5.37
2018-01-16T17:42:41.397Z,4.27
2018-01-16T17:45:09.678Z,3.67
2018-01-16T17:47:38.089Z,4.30
2018-01-16T17:50:05.645Z,4.00
2018-01-16T17:52:33.907Z,8.70
2018-01-16T17:55:01.472Z,6.60
2018-01-16T17:57:28.991Z,4.50
2018-01-16T17:59:56.544Z,6.03
2018-01-16T18:02:24.897Z,5.40
2018-01-16T18:04:52.450Z,5.77
2018-01-16T18:07:20.095Z,9.27
2018-01-16T18:09:47.684Z,10.00
2018-01-16T18:12:15.229Z,6.30
2018-01-16T18:14:43.525Z,4.33
2018-01-16T18:17:11.050Z,4.37
2018-01-16T18:19:38.674Z,5.47
2018-01-16T18:22:06.234Z,9.30
2018-01-16T18:24:34.570Z,16.63
2018-01-16T18:27:02.104Z,5.50
2018-01-16T18:29:29.651Z,9.83
2018-01-16T18:31:57.160Z,8.33
2018-01-16T18:34:24.757Z,8.17
2018-01-16T18:36:52.418Z,6.03
2018-01-16T18:39:20.067Z,12.40
2018-01-16T18:41:47.696Z,4.30
2018-01-16T18:44:16.032Z,5.03
2018-01-16T18:46:43.601Z,7.20
2018-01-16T18:49:11.163Z,7.07
2018-01-16T18:51:39.466Z,6.47
2018-01-16T18:54:07.035Z,7.93
2018-01-16T18:56:34.597Z,8.43
2018-01-16T18:59:02.160Z,11.37
2018-01-16T19:01:30.425Z,8.50
2018-01-16T19:03:58.034Z,7.40
2018-01-16T19:06:25.544Z,11.83
2018-01-16T19:08:53.071Z,11.93
2018-01-16T19:11:21.360Z,11.73
2018-01-16T19:13:49.713Z,10.30
2018-01-16T19:16:17.210Z,8.20
2018-01-16T19:18:45.600Z,11.13
2018-01-16T19:21:13.936Z,10.80
2018-01-16T19:23:41.508Z,7.20
2018-01-16T19:26:09.018Z,13.33
2018-01-16T19:28:37.565Z,10.90
2018-01-16T19:31:05.075Z,10.73
2018-01-16T19:33:33.625Z,9.87
2018-01-16T19:36:01.225Z,10.70
2018-01-16T19:38:30.057Z,10.30
2018-01-16T19:40:58.644Z,8.03
2018-01-16T19:43:27.093Z,9.40
2018-01-16T19:45:54.606Z,11.20
2018-01-16T19:48:22.193Z,5.73
2018-01-16T19:50:50.575Z,9.53
2018-01-16T19:53:18.904Z,6.87
2018-01-16T19:55:46.490Z,17.20
2018-01-16T19:58:14.033Z,9.80
2018-01-16T20:00:41.557Z,4.60
2018-01-16T20:03:09.156Z,7.57
2018-01-16T20:05:37.464Z,7.10
2018-01-16T20:08:05.066Z,9.50
2018-01-16T20:10:33.026Z,6.97
2018-01-16T20:13:00.619Z,7.20
2018-01-16T20:15:28.932Z,6.63
2018-01-16T20:17:56.538Z,6.83
2018-01-16T20:20:24.124Z,6.33
2018-01-16T20:22:51.670Z,7.60
2018-01-16T20:25:19.306Z,6.93
2018-01-16T20:27:46.863Z,10.33
2018-01-16T20:30:14.503Z,9.10
2018-01-16T20:32:42.910Z,6.00
2018-01-16T20:35:10.512Z,7.47
2018-01-16T20:37:38.146Z,6.10
2018-01-16T20:40:05.680Z,6.83
2018-01-16T20:42:33.243Z,3.80
2018-01-16T20:45:00.795Z,8.13
2018-01-16T20:47:28.438Z,8.70
2018-01-16T20:49:55.959Z,7.73
2018-01-16T20:52:23.509Z,7.57
2018-01-16T20:54:51.025Z,13.47
2018-01-16T20:57:20.299Z,8.80
2018-01-16T20:59:47.847Z,7.97
2018-01-16T21:02:15.419Z,9.40
2018-01-16T21:04:42.921Z,6.60
2018-01-16T21:07:10.470Z,7.63
2018-01-16T21:09:38.446Z,11.10
2018-01-16T21:12:06.314Z,13.73
2018-01-16T21:14:34.118Z,7.80
2018-01-16T21:17:01.798Z,10.87
2018-01-16T21:19:29.320Z,11.50
2018-01-16T21:21:57.709Z,10.70
2018-01-16T21:24:26.262Z,7.97
2018-01-16T21:26:53.886Z,9.90
2018-01-16T21:29:22.293Z,8.20
2018-01-16T21:31:49.814Z,10.37
2018-01-16T21:34:17.448Z,9.43
2018-01-16T21:36:44.969Z,9.70
2018-01-16T21:39:12.462Z,11.07
2018-01-16T21:41:40.915Z,9.80
2018-01-16T21:44:08.449Z,17.67
2018-01-16T21:46:36.025Z,13.23
2018-01-16T21:49:03.584Z,7.87
2018-01-16T21:51:31.346Z,7.40
2018-01-16T21:53:59.658Z,11.93
2018-01-16T21:56:27.186Z,11.37
2018-01-16T21:58:54.712Z,8.93
2018-01-16T22:01:22.266Z,8.00
2018-01-16T22:03:49.857Z,8.47
2018-01-16T22:06:17.411Z,10.23
2018-01-16T22:08:44.976Z,11.77
2018-01-16T22:11:12.545Z,15.33
2018-01-16T22:13:40.062Z,16.20
2018-01-16T22:16:07.792Z,11.17
2018-01-16T22:18:35.300Z,6.70
2018-01-16T22:21:02.852Z,11.07
2018-01-16T22:23:30.368Z,10.43
2018-01-16T22:25:57.891Z,9.30
2018-01-16T22:28:25.426Z,13.67
2018-01-16T22:30:54.667Z,7.47
2018-01-16T22:33:22.289Z,8.70
2018-01-16T22:35:49.892Z,13.70
2018-01-16T22:38:18.163Z,9.33
2018-01-16T22:40:45.754Z,11.93
2018-01-16T22:43:13.322Z,9.73
2018-01-16T22:45:41.621Z,9.90
2018-01-16T22:48:09.138Z,8.00
2018-01-16T22:50:36.813Z,8.93
2018-01-16T22:53:04.334Z,9.63
2018-01-16T22:55:31.852Z,9.97
2018-01-16T22:57:59.372Z,8.93
2018-01-16T23:00:27.061Z,10.50
2018-01-16T23:02:54.559Z,6.50
2018-01-16T23:05:22.092Z,8.90
2018-01-16T23:07:49.576Z,10.90
2018-01-16T23:10:17.691Z,8.07
2018-01-16T23:12:45.189Z,16.60
2018-01-16T23:15:12.706Z,7.57
2018-01-16T23:17:40.256Z,9.77
2018-01-16T23:20:07.769Z,14.60
2018-01-16T23:22:35.276Z,10.53
2018-01-16T23:25:03.584Z,11.33
2018-01-16T23:27:31.091Z,9.47
2018-01-16T23:29:58.636Z,15.43
2018-01-16T23:32:26.149Z,11.50
2018-01-16T23:34:53.792Z,14.27
2018-01-16T23:37:21.296Z,7.37
2018-01-16T23:39:48.845Z,6.67
2018-01-16T23:42:16.380Z,6.03
2018-01-16T23:44:44.009Z,6.90
2018-01-16T23:47:11.504Z,10.47
2018-01-16T23:49:39.795Z,8.53
2018-01-16T23:52:08.051Z,12.20
2018-01-16T23:54:35.799Z,13.97
2018-01-16T23:57:03.291Z,11.00
2018-01-16T23:59:30.828Z,14.00
